createdAt,value
2018-12-13T00:02:25.695Z,-0.70
2018-12-13T00:04:53.140Z,-0.80
2018-12-13T00:07:20.906Z,-0.80
2018-12-13T00:09:48.489Z,-0.90
2018-12-13T00:12:15.928Z,-0.90
2018-12-13T00:14:43.897Z,-0.90
2018-12-13T00:17:11.471Z,-0.80
2018-12-13T00:19:38.965Z,-0.70
2018-12-13T00:22:06.427Z,-0.70
2018-12-13T00:24:33.991Z,-0.80
2018-12-13T00:27:01.436Z,-0.80
2018-12-13T00:29:28.889Z,-0.80
2018-12-13T00:31:56.381Z,-1.00
2018-12-13T00:34:23.833Z,-1.10
2018-12-13T00:36:51.846Z,-1.30
2018-12-13T00:39:19.485Z,-1.30
2018-12-13T00:41:46.953Z,-1.40
2018-12-13T00:44:14.554Z,-1.50
2018-12-13T00:46:42.029Z,-1.60
2018-12-13T00:49:09.477Z,-1.60
2018-12-13T00:51:36.995Z,-1.70
2018-12-13T00:54:05.353Z,-1.70
2018-12-13T00:56:32.825Z,-1.80
2018-12-13T00:59:00.272Z,-1.90
2018-12-13T01:01:27.791Z,-2.00
2018-12-13T01:03:55.394Z,-2.10
2018-12-13T01:06:22.831Z,-2.10
2018-12-13T01:08:50.281Z,-2.10
2018-12-13T01:11:17.806Z,-2.20
2018-12-13T01:13:45.404Z,-2.20
2018-12-13T01:16:15.722Z,-2.20
2018-12-13T01:18:47.715Z,-2.20
2018-12-13T01:21:20.462Z,-2.20
2018-12-13T01:23:44.850Z,-2.20
2018-12-13T01:26:12.316Z,-2.20
2018-12-13T01:28:40.001Z,-2.20
2018-12-13T01:31:07.440Z,-2.20
2018-12-13T01:33:34.908Z,-2.10
2018-12-13T01:36:02.377Z,-2.00
2018-12-13T01:38:29.922Z,-2.00
2018-12-13T01:40:58.285Z,-2.00
2018-12-13T01:43:25.766Z,-2.10
2018-12-13T01:45:53.197Z,-2.20
2018-12-13T01:48:20.672Z,-2.20
2018-12-13T01:50:48.114Z,-2.00
2018-12-13T01:53:15.589Z,-2.00
2018-12-13T01:55:43.069Z,-2.00
2018-12-13T01:58:10.532Z,-2.10
2018-12-13T02:00:37.974Z,-2.10
2018-12-13T02:03:06.169Z,-2.00
2018-12-13T02:05:33.668Z,-2.00
2018-12-13T02:08:01.357Z,-2.10
2018-12-13T02:10:28.829Z,-2.20
2018-12-13T02:12:56.283Z,-2.30
2018-12-13T02:15:24.045Z,-2.20
2018-12-13T02:17:51.607Z,-2.20
2018-12-13T02:20:19.072Z,-2.10
2018-12-13T02:22:46.568Z,-2.10
2018-12-13T02:25:14.772Z,-2.10
2018-12-13T02:27:42.215Z,-2.00
2018-12-13T02:30:11.470Z,-2.00
2018-12-13T02:32:39.161Z,-1.90
2018-12-13T02:35:06.793Z,-1.80
2018-12-13T02:37:34.297Z,-1.80
2018-12-13T02:40:01.791Z,-1.80
2018-12-13T02:42:29.249Z,-1.90
2018-12-13T02:44:56.743Z,-1.80
2018-12-13T02:47:24.161Z,-1.80
2018-12-13T02:49:51.696Z,-1.70
2018-12-13T02:52:19.491Z,-1.80
2018-12-13T02:54:47.064Z,-1.70
2018-12-13T02:57:14.534Z,-1.60
2018-12-13T02:59:42.013Z,-1.60
2018-12-13T03:02:09.482Z,-1.60
2018-12-13T03:04:36.927Z,-1.60
2018-12-13T03:07:04.458Z,-1.70
2018-12-13T03:09:31.966Z,-1.70
2018-12-13T03:11:59.489Z,-1.70
2018-12-13T03:14:26.992Z,-1.70
2018-12-13T03:16:54.474Z,-1.80
2018-12-13T03:19:21.930Z,-1.80
2018-12-13T03:21:50.127Z,-1.80
2018-12-13T03:24:17.658Z,-1.80
2018-12-13T03:26:45.127Z,-1.90
2018-12-13T03:29:12.670Z,-2.00
2018-12-13T03:31:40.143Z,-2.20
2018-12-13T03:34:07.629Z,-2.10
2018-12-13T03:36:42.078Z,-2.10
2018-12-13T03:39:09.708Z,-2.10
2018-12-13T03:41:37.214Z,-2.10
2018-12-13T03:44:04.782Z,-2.10
2018-12-13T03:46:32.238Z,-2.30
2018-12-13T03:48:59.687Z,-2.50
2018-12-13T03:51:30.530Z,-2.40
2018-12-13T03:53:57.994Z,-2.30
2018-12-13T03:56:25.459Z,-2.50
2018-12-13T03:58:53.823Z,-2.60
2018-12-13T04:01:21.296Z,-2.60
2018-12-13T04:03:48.944Z,-2.60
2018-12-13T04:06:20.907Z,-2.60
2018-12-13T04:08:48.978Z,-2.60
2018-12-13T04:11:16.429Z,-2.60
2018-12-13T04:13:44.101Z,-2.60
2018-12-13T04:16:11.673Z,-2.60
2018-12-13T04:18:39.322Z,-2.60
2018-12-13T04:21:06.793Z,-2.60
2018-12-13T04:23:34.326Z,-2.60
2018-12-13T04:26:02.626Z,-2.50
2018-12-13T04:28:30.174Z,-2.40
2018-12-13T04:31:24.473Z,-2.60
2018-12-13T04:33:52.163Z,-2.60
2018-12-13T04:36:19.682Z,-2.50
2018-12-13T04:38:47.157Z,-2.60
2018-12-13T04:41:14.607Z,-2.50
2018-12-13T04:43:42.080Z,-2.30
2018-12-13T04:46:10.446Z,-2.30
2018-12-13T04:48:37.961Z,-2.10
2018-12-13T04:51:05.405Z,-2.10
2018-12-13T04:53:32.862Z,-2.10
2018-12-13T04:56:00.456Z,-2.20
2018-12-13T04:58:27.889Z,-2.20
2018-12-13T05:00:55.361Z,-2.20
2018-12-13T05:03:23.001Z,-2.40
2018-12-13T05:05:50.584Z,-2.40
2018-12-13T05:08:18.564Z,-2.40
2018-12-13T05:10:50.823Z,-2.50
2018-12-13T05:13:19.134Z,-2.40
2018-12-13T05:15:47.197Z,-2.30
2018-12-13T05:18:14.841Z,-2.20
2018-12-13T05:20:42.310Z,-2.20
2018-12-13T05:23:10.054Z,-2.20
2018-12-13T05:25:38.461Z,-2.20
2018-12-13T05:28:06.062Z,-2.10
2018-12-13T05:30:33.611Z,-2.10
2018-12-13T05:33:01.090Z,-2.00
2018-12-13T05:35:28.573Z,-2.00
2018-12-13T05:37:56.069Z,-2.00
2018-12-13T05:40:23.590Z,-2.10
2018-12-13T05:42:51.078Z,-2.20
2018-12-13T05:45:18.541Z,-2.20
2018-12-13T05:47:46.564Z,-2.30
2018-12-13T05:50:14.042Z,-2.40
2018-12-13T05:52:41.726Z,-2.40
2018-12-13T05:55:09.590Z,-2.40
2018-12-13T05:57:37.035Z,-2.40
2018-12-13T06:00:06.697Z,-2.40
2018-12-13T06:02:34.193Z,-2.40
2018-12-13T06:05:01.650Z,-2.50
2018-12-13T06:07:29.413Z,-2.60
2018-12-13T06:09:56.857Z,-2.70
2018-12-13T06:12:25.047Z,-2.80
2018-12-13T06:14:52.506Z,-2.80
2018-12-13T06:17:19.958Z,-2.90
2018-12-13T06:19:47.461Z,-2.90
2018-12-13T06:22:15.243Z,-2.90
2018-12-13T06:24:42.741Z,-2.90
2018-12-13T06:27:10.217Z,-2.90
2018-12-13T06:29:41.821Z,-2.90
2018-12-13T06:32:07.954Z,-3.00
2018-12-13T06:34:35.642Z,-3.00
2018-12-13T06:37:03.659Z,-2.90
2018-12-13T06:39:31.194Z,-2.90
2018-12-13T06:41:58.688Z,-3.00
2018-12-13T06:44:26.136Z,-2.90
2018-12-13T06:46:53.679Z,-2.90
2018-12-13T06:49:21.128Z,-2.90
2018-12-13T06:51:48.678Z,-2.90
2018-12-13T06:54:17.046Z,-2.90
2018-12-13T06:56:44.597Z,-2.90
2018-12-13T06:59:12.266Z,-2.90
2018-12-13T07:01:39.773Z,-2.90
2018-12-13T07:04:10.369Z,-2.80
2018-12-13T07:06:37.805Z,-2.80
2018-12-13T07:09:05.878Z,-2.90
2018-12-13T07:11:33.338Z,-2.90
2018-12-13T07:14:00.900Z,-2.90
2018-12-13T07:16:28.375Z,-2.90
2018-12-13T07:18:55.827Z,-2.90
2018-12-13T07:21:23.298Z,-2.80
2018-12-13T07:23:50.904Z,-2.80
2018-12-13T07:26:18.480Z,-2.80
2018-12-13T07:28:45.922Z,-2.70
2018-12-13T07:31:13.387Z,-2.70
2018-12-13T07:33:40.826Z,-2.70
2018-12-13T07:36:09.304Z,-2.60
2018-12-13T07:38:36.745Z,-2.60
2018-12-13T07:41:04.245Z,-2.60
2018-12-13T07:43:31.704Z,-2.60
2018-12-13T07:45:59.270Z,-2.50
2018-12-13T07:48:26.803Z,-2.40
2018-12-13T07:50:54.329Z,-2.40
2018-12-13T07:53:22.713Z,-2.40
2018-12-13T07:55:50.170Z,-2.30
2018-12-13T07:58:18.127Z,-2.20
2018-12-13T08:00:45.590Z,-2.20
2018-12-13T08:03:13.138Z,-2.00
2018-12-13T08:05:40.609Z,-2.00
2018-12-13T08:08:08.310Z,-1.90
2018-12-13T08:10:36.749Z,-1.80
2018-12-13T08:13:04.273Z,-1.70
2018-12-13T08:15:31.721Z,-1.70
2018-12-13T08:18:02.040Z,-1.60
2018-12-13T08:20:29.550Z,-1.50
2018-12-13T08:22:57.123Z,-1.40
2018-12-13T08:25:24.622Z,-1.30
2018-12-13T08:27:52.068Z,-1.20
2018-12-13T08:30:20.345Z,-1.10
2018-12-13T08:32:47.841Z,-1.10
2018-12-13T08:35:15.437Z,-1.00
2018-12-13T08:37:43.126Z,-1.00
2018-12-13T08:40:11.143Z,-1.00
2018-12-13T08:42:38.623Z,-1.00
2018-12-13T08:45:06.265Z,-1.00
2018-12-13T08:47:34.235Z,-1.00
2018-12-13T08:50:01.745Z,-1.00
2018-12-13T08:52:29.210Z,-0.90
2018-12-13T08:54:56.680Z,-0.90
2018-12-13T08:57:24.157Z,-0.90
2018-12-13T08:59:51.624Z,-0.80
2018-12-13T09:02:19.059Z,-0.70
2018-12-13T09:04:46.553Z,-0.60
2018-12-13T09:07:14.154Z,-0.50
2018-12-13T09:09:42.218Z,-0.50
2018-12-13T09:12:09.718Z,-0.40
2018-12-13T09:14:37.153Z,-0.30
2018-12-13T09:17:04.636Z,-0.20
2018-12-13T09:19:32.105Z,-0.20
2018-12-13T09:22:11.393Z,-0.20
2018-12-13T09:24:38.892Z,0.00
2018-12-13T09:27:06.377Z,0.10
2018-12-13T09:29:33.860Z,0.10
2018-12-13T09:32:01.315Z,0.20
2018-12-13T09:34:28.850Z,0.40
2018-12-13T09:36:57.215Z,0.50
2018-12-13T09:39:24.683Z,0.50
2018-12-13T09:41:52.174Z,0.60
2018-12-13T09:44:19.635Z,0.60
2018-12-13T09:46:47.137Z,0.70
2018-12-13T09:49:14.631Z,0.70
2018-12-13T09:51:46.409Z,0.60
2018-12-13T09:54:13.891Z,0.60
2018-12-13T09:56:41.637Z,0.50
2018-12-13T09:59:09.109Z,0.60
2018-12-13T10:01:36.634Z,0.60
2018-12-13T10:04:04.223Z,0.60
2018-12-13T10:06:31.693Z,0.60
2018-12-13T10:08:59.167Z,0.70
2018-12-13T10:11:26.624Z,0.70
2018-12-13T10:13:54.934Z,0.80
2018-12-13T10:16:22.366Z,0.80
2018-12-13T10:18:49.885Z,0.90
2018-12-13T10:21:17.328Z,1.00
2018-12-13T10:23:44.893Z,1.20
2018-12-13T10:26:12.554Z,1.20
2018-12-13T10:28:40.110Z,1.40
2018-12-13T10:31:07.631Z,1.50
2018-12-13T10:33:35.138Z,1.60
2018-12-13T10:36:03.386Z,1.70
2018-12-13T10:38:30.876Z,1.80
2018-12-13T10:40:58.928Z,1.80
2018-12-13T10:43:26.390Z,1.80
2018-12-13T10:45:53.893Z,1.90
2018-12-13T10:48:22.344Z,2.00
2018-12-13T10:50:49.843Z,2.10
2018-12-13T10:53:17.366Z,2.10
2018-12-13T10:55:44.799Z,2.00
2018-12-13T10:58:12.269Z,2.00
2018-12-13T11:00:41.662Z,2.10
2018-12-13T11:03:22.429Z,2.10
2018-12-13T11:05:49.968Z,2.10
2018-12-13T11:08:18.365Z,2.10
2018-12-13T11:10:45.870Z,2.20
2018-12-13T11:13:13.469Z,2.20
2018-12-13T11:15:40.991Z,2.20
2018-12-13T11:18:08.451Z,2.20
2018-12-13T11:20:35.970Z,2.20
2018-12-13T11:23:03.508Z,2.30
2018-12-13T11:25:31.881Z,2.20
2018-12-13T11:28:25.678Z,2.10
2018-12-13T11:30:53.793Z,2.10
2018-12-13T11:33:21.607Z,2.00
2018-12-13T11:35:49.092Z,1.90
2018-12-13T11:38:16.633Z,1.80
2018-12-13T11:40:44.085Z,1.80
2018-12-13T11:43:11.557Z,1.90
2018-12-13T11:45:39.669Z,1.90
2018-12-13T11:48:07.167Z,1.80
2018-12-13T11:50:34.637Z,1.90
2018-12-13T11:53:02.114Z,2.00
2018-12-13T11:55:32.541Z,2.00
2018-12-13T11:58:00.885Z,2.10
2018-12-13T12:00:29.294Z,2.20
2018-12-13T12:02:57.003Z,2.00
2018-12-13T12:05:24.541Z,2.00
2018-12-13T12:07:52.017Z,2.20
2018-12-13T12:10:19.497Z,2.30
2018-12-13T12:12:47.158Z,2.40
2018-12-13T12:15:14.936Z,2.40
2018-12-13T12:17:43.173Z,2.40
2018-12-13T12:20:11.769Z,2.40
2018-12-13T12:22:39.212Z,2.40
2018-12-13T12:25:07.649Z,2.30
2018-12-13T12:27:35.145Z,2.20
2018-12-13T12:30:03.114Z,2.10
2018-12-13T12:32:30.615Z,2.00
2018-12-13T12:34:58.108Z,1.90
2018-12-13T12:37:25.632Z,1.80
2018-12-13T12:39:53.058Z,1.70
2018-12-13T12:42:21.442Z,1.60
2018-12-13T12:44:48.991Z,1.50
2018-12-13T12:47:16.458Z,1.60
2018-12-13T12:49:43.915Z,1.60
2018-12-13T12:52:12.132Z,1.60
2018-12-13T12:54:44.081Z,1.70
2018-12-13T12:57:11.524Z,1.70
2018-12-13T12:59:38.985Z,1.70
2018-12-13T13:02:06.858Z,1.80
2018-12-13T13:04:35.437Z,1.90
2018-12-13T13:07:03.265Z,2.00
2018-12-13T13:09:30.728Z,2.10
2018-12-13T13:11:58.177Z,2.10
2018-12-13T13:14:25.641Z,2.10
2018-12-13T13:16:53.231Z,2.00
2018-12-13T13:19:20.675Z,2.10
2018-12-13T13:21:49.229Z,1.90
2018-12-13T13:24:16.719Z,1.80
2018-12-13T13:26:44.144Z,1.60
2018-12-13T13:29:11.646Z,1.50
2018-12-13T13:31:39.089Z,1.50
2018-12-13T13:34:06.602Z,1.40
2018-12-13T13:36:34.047Z,1.40
2018-12-13T13:39:01.509Z,1.30
2018-12-13T13:41:28.999Z,1.20
2018-12-13T13:43:57.012Z,1.00
2018-12-13T13:46:24.513Z,0.90
2018-12-13T13:48:52.225Z,0.80
2018-12-13T13:51:19.990Z,0.80
2018-12-13T13:53:47.453Z,0.80
2018-12-13T13:56:18.597Z,0.80
2018-12-13T13:58:46.653Z,0.70
2018-12-13T14:01:14.213Z,0.80
2018-12-13T14:03:41.802Z,0.80
2018-12-13T14:06:09.311Z,0.80
2018-12-13T14:08:36.818Z,0.90
2018-12-13T14:11:07.441Z,0.90
2018-12-13T14:13:35.831Z,1.00
2018-12-13T14:16:03.298Z,1.00
2018-12-13T14:18:30.774Z,1.10
2018-12-13T14:20:58.295Z,1.10
2018-12-13T14:23:25.790Z,1.10
2018-12-13T14:25:53.289Z,1.10
2018-12-13T14:28:24.404Z,1.10
2018-12-13T14:30:51.857Z,1.10
2018-12-13T14:33:19.813Z,1.10
2018-12-13T14:35:47.299Z,1.00
2018-12-13T14:38:14.766Z,1.00
2018-12-13T14:40:42.243Z,1.00
2018-12-13T14:43:14.310Z,1.00
2018-12-13T14:45:41.756Z,1.00
2018-12-13T14:48:09.439Z,0.90
2018-12-13T14:50:36.909Z,0.90
2018-12-13T14:53:04.387Z,0.90
2018-12-13T14:55:31.845Z,0.90
2018-12-13T14:58:02.953Z,0.90
2018-12-13T15:00:30.478Z,1.00
2018-12-13T15:02:59.002Z,1.00
2018-12-13T15:05:26.701Z,0.90
2018-12-13T15:07:54.174Z,0.90
2018-12-13T15:10:21.681Z,0.80
2018-12-13T15:12:52.590Z,0.80
2018-12-13T15:15:20.169Z,0.70
2018-12-13T15:17:49.003Z,0.70
2018-12-13T15:20:16.571Z,0.80
2018-12-13T15:22:44.074Z,0.80
2018-12-13T15:25:11.832Z,0.80
2018-12-13T15:27:43.077Z,0.90
2018-12-13T15:30:10.509Z,0.90
2018-12-13T15:32:38.006Z,0.80
2018-12-13T15:35:05.794Z,0.80
2018-12-13T15:37:33.274Z,0.80
2018-12-13T15:40:00.748Z,0.80
2018-12-13T15:42:28.237Z,0.80
2018-12-13T15:44:56.628Z,0.80
2018-12-13T15:47:24.065Z,0.80
2018-12-13T15:49:51.526Z,0.80
2018-12-13T15:52:19.036Z,0.70
2018-12-13T15:54:46.475Z,0.70
2018-12-13T15:57:13.966Z,0.70
2018-12-13T15:59:41.488Z,0.70
2018-12-13T16:02:09.041Z,0.70
2018-12-13T16:04:36.544Z,0.70
2018-12-13T16:07:04.047Z,0.70
2018-12-13T16:09:31.535Z,0.60
2018-12-13T16:12:00.345Z,0.60
2018-12-13T16:14:27.861Z,0.70
2018-12-13T16:16:55.312Z,0.70
2018-12-13T16:19:22.841Z,0.70
2018-12-13T16:21:50.299Z,0.70
2018-12-13T16:24:17.734Z,0.70
2018-12-13T16:26:45.225Z,0.70
2018-12-13T16:29:16.907Z,0.70
2018-12-13T16:31:44.409Z,0.70
2018-12-13T16:34:11.917Z,0.70
2018-12-13T16:36:39.407Z,0.70
2018-12-13T16:39:08.454Z,0.80
2018-12-13T16:41:35.948Z,0.70
2018-12-13T16:44:03.470Z,0.80
2018-12-13T16:46:31.017Z,0.70
2018-12-13T16:48:58.496Z,0.70
2018-12-13T16:51:25.962Z,0.60
2018-12-13T16:53:53.444Z,0.60
2018-12-13T16:56:20.913Z,0.60
2018-12-13T16:58:48.435Z,0.60
2018-12-13T17:01:16.861Z,0.60
2018-12-13T17:03:44.341Z,0.60
2018-12-13T17:06:11.912Z,0.60
2018-12-13T17:08:39.391Z,0.60
2018-12-13T17:11:06.894Z,0.60
2018-12-13T17:13:34.469Z,0.60
2018-12-13T17:16:01.909Z,0.60
2018-12-13T17:18:30.317Z,0.60
2018-12-13T17:20:57.784Z,0.60
2018-12-13T17:23:25.276Z,0.60
2018-12-13T17:25:52.741Z,0.60
2018-12-13T17:28:20.226Z,0.60
2018-12-13T17:30:47.906Z,0.50
2018-12-13T17:33:15.353Z,0.50
2018-12-13T17:35:43.814Z,0.50
2018-12-13T17:38:11.302Z,0.50
2018-12-13T17:40:38.850Z,0.50
2018-12-13T17:43:06.297Z,0.50
2018-12-13T17:45:33.874Z,0.50
2018-12-13T17:48:01.385Z,0.50
2018-12-13T17:50:28.887Z,0.40
2018-12-13T17:52:56.399Z,0.40
2018-12-13T17:55:23.935Z,0.40
2018-12-13T17:57:52.246Z,0.40
2018-12-13T18:00:20.105Z,0.40
2018-12-13T18:02:47.643Z,0.40
2018-12-13T18:05:15.202Z,0.40
2018-12-13T18:07:42.678Z,0.40
2018-12-13T18:10:11.460Z,0.30
2018-12-13T18:12:38.999Z,0.30
2018-12-13T18:15:06.629Z,0.40
2018-12-13T18:17:34.306Z,0.40
2018-12-13T18:20:01.786Z,0.40
2018-12-13T18:22:29.289Z,0.30
2018-12-13T18:24:56.802Z,0.40
2018-12-13T18:27:25.316Z,0.40
2018-12-13T18:29:52.773Z,0.40
2018-12-13T18:32:20.246Z,0.40
2018-12-13T18:34:47.829Z,0.40
2018-12-13T18:37:15.285Z,0.40
2018-12-13T18:39:42.790Z,0.50
2018-12-13T18:42:10.322Z,0.50
2018-12-13T18:44:37.753Z,0.50
2018-12-13T18:47:05.398Z,0.50
2018-12-13T18:49:33.369Z,0.50
2018-12-13T18:52:01.073Z,0.50
2018-12-13T18:54:28.721Z,0.50
2018-12-13T18:56:56.172Z,0.50
2018-12-13T18:59:23.674Z,0.50
2018-12-13T19:01:51.151Z,0.50
2018-12-13T19:04:18.795Z,0.50
2018-12-13T19:06:47.333Z,0.50
2018-12-13T19:09:14.994Z,0.50
2018-12-13T19:11:42.548Z,0.50
2018-12-13T19:14:10.000Z,0.50
2018-12-13T19:16:37.547Z,0.40
2018-12-13T19:19:05.049Z,0.50
2018-12-13T19:21:32.526Z,0.60
2018-12-13T19:24:00.946Z,0.60
2018-12-13T19:26:28.454Z,0.50
2018-12-13T19:28:55.969Z,0.50
2018-12-13T19:31:26.607Z,0.60
2018-12-13T19:33:54.078Z,0.50
2018-12-13T19:36:21.682Z,0.50
2018-12-13T19:38:49.375Z,0.50
2018-12-13T19:41:16.890Z,0.50
2018-12-13T19:43:44.933Z,0.50
2018-12-13T19:46:12.409Z,0.50
2018-12-13T19:48:39.838Z,0.50
2018-12-13T19:51:07.581Z,0.50
2018-12-13T19:53:35.029Z,0.50
2018-12-13T19:56:02.595Z,0.60
2018-12-13T19:58:30.057Z,0.60
2018-12-13T20:00:58.433Z,0.50
2018-12-13T20:03:26.010Z,0.50
2018-12-13T20:05:53.470Z,0.50
2018-12-13T20:08:20.915Z,0.50
2018-12-13T20:10:54.465Z,0.50
2018-12-13T20:13:17.969Z,0.50
2018-12-13T20:15:45.430Z,0.40
2018-12-13T20:18:12.914Z,0.50
2018-12-13T20:20:40.354Z,0.40
2018-12-13T20:23:07.802Z,0.40
2018-12-13T20:25:35.363Z,0.40
2018-12-13T20:28:02.842Z,0.40
2018-12-13T20:30:31.221Z,0.50
2018-12-13T20:33:06.233Z,0.50
2018-12-13T20:35:33.704Z,0.50
2018-12-13T20:38:01.669Z,0.50
2018-12-13T20:40:29.179Z,0.50
2018-12-13T20:42:57.289Z,0.40
2018-12-13T20:45:25.069Z,0.40
2018-12-13T20:47:52.552Z,0.40
2018-12-13T20:50:20.094Z,0.40
2018-12-13T20:52:47.691Z,0.40
2018-12-13T20:55:15.649Z,0.40
2018-12-13T20:57:43.089Z,0.40
2018-12-13T21:00:10.670Z,0.40
2018-12-13T21:02:38.117Z,0.40
2018-12-13T21:05:05.779Z,0.40
2018-12-13T21:07:33.681Z,0.40
2018-12-13T21:10:01.235Z,0.40
2018-12-13T21:12:29.657Z,0.40
2018-12-13T21:14:57.111Z,0.40
2018-12-13T21:17:24.573Z,0.40
2018-12-13T21:19:52.129Z,0.40
2018-12-13T21:22:19.658Z,0.30
2018-12-13T21:24:47.120Z,0.30
2018-12-13T21:27:14.606Z,0.30
2018-12-13T21:29:42.073Z,0.30
2018-12-13T21:32:09.583Z,0.30
2018-12-13T21:34:37.551Z,0.30
2018-12-13T21:37:05.109Z,0.20
2018-12-13T21:39:32.558Z,0.20
2018-12-13T21:42:00.030Z,0.10
2018-12-13T21:44:27.729Z,0.10
2018-12-13T21:46:55.189Z,0.10
2018-12-13T21:49:22.653Z,0.20
2018-12-13T21:51:50.392Z,0.20
2018-12-13T21:54:17.849Z,0.20
2018-12-13T21:56:46.578Z,0.20
2018-12-13T21:59:14.050Z,0.20
2018-12-13T22:01:41.975Z,0.20
2018-12-13T22:04:09.421Z,0.20
2018-12-13T22:06:36.981Z,0.20
2018-12-13T22:09:06.490Z,0.20
2018-12-13T22:11:34.158Z,0.20
2018-12-13T22:14:01.605Z,0.10
2018-12-13T22:16:29.627Z,0.10
2018-12-13T22:18:57.092Z,0.10
2018-12-13T22:21:24.535Z,0.10
2018-12-13T22:23:52.011Z,0.10
2018-12-13T22:26:19.458Z,0.20
2018-12-13T22:28:46.940Z,0.20
2018-12-13T22:31:14.402Z,0.10
2018-12-13T22:33:41.958Z,0.20
2018-12-13T22:36:09.503Z,0.20
2018-12-13T22:38:37.005Z,0.20
2018-12-13T22:41:04.579Z,0.30
2018-12-13T22:43:32.981Z,0.20
2018-12-13T22:46:02.445Z,0.30
2018-12-13T22:48:30.321Z,0.30
2018-12-13T22:50:58.074Z,0.20
2018-12-13T22:53:25.639Z,0.20
2018-12-13T22:55:53.141Z,0.30
2018-12-13T22:58:20.623Z,0.20
2018-12-13T23:00:48.135Z,0.20
2018-12-13T23:03:15.589Z,0.20
2018-12-13T23:05:47.330Z,0.20
2018-12-13T23:08:14.763Z,0.10
2018-12-13T23:10:42.630Z,0.20
2018-12-13T23:13:10.530Z,0.20
2018-12-13T23:15:38.281Z,0.20
2018-12-13T23:18:06.161Z,0.20
2018-12-13T23:20:33.604Z,0.20
2018-12-13T23:23:01.106Z,0.20
2018-12-13T23:25:28.674Z,0.20
2018-12-13T23:27:56.197Z,0.20
2018-12-13T23:30:23.686Z,0.20
2018-12-13T23:32:51.118Z,0.20
2018-12-13T23:35:19.510Z,0.10
2018-12-13T23:37:47.038Z,0.10
2018-12-13T23:40:14.513Z,0.10
2018-12-13T23:42:41.991Z,0.20
2018-12-13T23:45:09.476Z,0.20
2018-12-13T23:47:37.961Z,0.20
2018-12-13T23:50:05.773Z,0.10
2018-12-13T23:52:33.687Z,0.20
2018-12-13T23:55:01.147Z,0.20
2018-12-13T23:57:28.845Z,0.20
2018-12-13T23:59:56.314Z,0.20
